Terminal Aerodrome Forecast
Issued by NWS Lake Charles, LA

Home | Current Version | Previous Version | Text Only | Print | Product List | Glossary On
Versions: 1 2 3 4 5 6 7 8 9 10 11 12 13 14 15 16 17 18 19
000
FTUS44 KLCH 251821 AAA
TAFAEX
TAF AMD
KAEX 251821Z 2518/2618 16010G18KT P6SM BKN120
     FM260400 VRB05KT 4SM BR BKN015
     FM260800 VRB03KT 2SM BR OVC008
     FM261500 VRB04KT P6SM SCT025=

USA.gov is the U.S. government's official web portal to all federal, state and local government web resources and services.